createdAt,value
2022-12-05T00:01:22.839Z,102066.38
2022-12-05T00:04:11.156Z,102058.78
2022-12-05T00:06:56.599Z,102054.06
2022-12-05T00:09:41.998Z,102046.47
2022-12-05T00:12:27.524Z,102057.81
2022-12-05T00:15:13.381Z,102066.59
2022-12-05T00:17:58.653Z,102056.34
2022-12-05T00:20:48.794Z,102056.34
2022-12-05T00:23:34.251Z,102064.88
2022-12-05T00:26:19.766Z,102056.06
2022-12-05T00:29:05.495Z,102057.75
2022-12-05T00:31:50.888Z,102056.06
2022-12-05T00:34:36.373Z,102053.53
2022-12-05T00:37:22.268Z,102071.72
2022-12-05T00:40:08.354Z,102071.78
2022-12-05T00:42:53.886Z,102069.25
2022-12-05T00:45:39.149Z,102069.25
2022-12-05T00:48:24.594Z,102065.69
2022-12-05T00:51:11.651Z,102069.94
2022-12-05T00:54:02.232Z,102088.78
2022-12-05T00:56:47.428Z,102096.59
2022-12-05T00:59:32.880Z,102098.44
2022-12-05T01:02:18.265Z,102112.25
2022-12-05T01:05:04.201Z,102106.16
2022-12-05T01:07:49.779Z,102126.81
2022-12-05T01:10:35.193Z,102129.22
2022-12-05T01:13:21.315Z,102116.22
2022-12-05T01:16:06.968Z,102119.53
2022-12-05T01:18:57.238Z,102121.16
2022-12-05T01:21:43.577Z,102119.22
2022-12-05T01:24:30.318Z,102110.50
2022-12-05T01:27:16.187Z,102109.44
2022-12-05T01:30:02.350Z,102114.53
2022-12-05T01:32:47.997Z,102110.22
2022-12-05T01:35:35.573Z,102105.72
2022-12-05T01:38:21.144Z,102095.81
2022-12-05T01:41:09.577Z,102103.13
2022-12-05T01:44:00.105Z,102094.13
2022-12-05T01:46:52.020Z,102088.47
2022-12-05T01:49:41.455Z,102089.81
2022-12-05T01:52:29.788Z,102092.91
2022-12-05T01:55:17.790Z,102086.72
2022-12-05T01:58:05.409Z,102088.22
2022-12-05T02:00:51.752Z,102083.09
2022-12-05T02:03:38.309Z,102086.03
2022-12-05T02:06:26.046Z,102086.19
2022-12-05T02:09:11.616Z,102093.38
2022-12-05T02:12:01.038Z,102102.06
2022-12-05T02:15:20.121Z,102102.06
2022-12-05T02:18:38.995Z,102109.03
2022-12-05T02:21:27.522Z,102110.22
2022-12-05T02:24:53.924Z,102119.72
2022-12-05T02:28:03.945Z,102126.09
2022-12-05T02:30:56.750Z,102126.25
2022-12-05T02:33:54.245Z,102137.59
2022-12-05T02:36:57.130Z,102138.63
2022-12-05T02:40:03.193Z,102151.56
2022-12-05T02:43:00.313Z,102169.47
2022-12-05T02:45:51.146Z,102165.63
2022-12-05T02:48:37.562Z,102177.41
2022-12-05T02:51:27.691Z,102176.19
2022-12-05T02:54:19.130Z,102179.31
2022-12-05T02:57:05.886Z,102187.75
2022-12-05T02:59:51.826Z,102182.53
2022-12-05T03:02:40.722Z,102181.66
2022-12-05T03:05:39.117Z,102185.03
2022-12-05T03:08:33.375Z,102185.03
2022-12-05T03:11:19.296Z,102184.22
2022-12-05T03:14:10.419Z,102198.09
2022-12-05T03:17:02.095Z,102205.06
2022-12-05T03:20:18.861Z,102207.84
2022-12-05T03:23:39.998Z,102208.88
2022-12-05T03:26:44.246Z,102211.53
2022-12-05T03:29:48.387Z,102220.09
2022-12-05T03:32:43.109Z,102218.25
2022-12-05T03:35:43.450Z,102218.13
2022-12-05T03:38:35.117Z,102227.53
2022-12-05T03:41:32.942Z,102227.53
2022-12-05T03:44:29.926Z,102223.16
2022-12-05T03:47:38.303Z,102234.31
2022-12-05T03:50:29.624Z,102235.16
2022-12-05T03:53:29.618Z,102247.19
2022-12-05T03:56:20.061Z,102247.25
2022-12-05T03:59:19.111Z,102246.44
2022-12-05T04:02:10.276Z,102237.88
2022-12-05T04:05:07.131Z,102244.91
2022-12-05T04:07:59.216Z,102244.97
2022-12-05T04:10:51.535Z,102251.00
2022-12-05T04:13:44.477Z,102255.38
2022-12-05T04:17:02.027Z,102265.06
2022-12-05T04:20:13.982Z,102267.84
2022-12-05T04:23:00.933Z,102267.84
2022-12-05T04:26:01.946Z,102268.59
2022-12-05T04:28:50.419Z,102271.16
2022-12-05T04:31:43.109Z,102268.59
2022-12-05T04:34:31.625Z,102260.81
2022-12-05T04:37:23.800Z,102253.00
2022-12-05T04:40:19.943Z,102254.84
2022-12-05T04:43:06.994Z,102257.44
2022-12-05T04:45:54.767Z,102255.72
2022-12-05T04:48:42.685Z,102255.78
2022-12-05T04:51:34.269Z,102264.72
2022-12-05T04:54:29.504Z,102276.13
2022-12-05T04:57:24.331Z,102274.31
2022-12-05T05:00:10.976Z,102275.81
2022-12-05T05:03:05.545Z,102283.44
2022-12-05T05:05:54.519Z,102270.16
2022-12-05T05:08:49.194Z,102270.97
2022-12-05T05:11:35.782Z,102273.50
2022-12-05T05:14:21.006Z,102283.84
2022-12-05T05:17:06.433Z,102287.31
2022-12-05T05:19:51.684Z,102297.59
2022-12-05T05:22:37.274Z,102296.72
2022-12-05T05:25:23.557Z,102296.78
2022-12-05T05:28:08.978Z,102302.09
2022-12-05T05:30:54.235Z,102322.84
2022-12-05T05:33:40.517Z,102312.38
2022-12-05T05:36:27.507Z,102296.47
2022-12-05T05:39:15.545Z,102290.88
2022-12-05T05:42:01.303Z,102286.97
2022-12-05T05:44:46.720Z,102289.16
2022-12-05T05:47:31.960Z,102291.59
2022-12-05T05:50:21.388Z,102286.22
2022-12-05T05:53:07.559Z,102293.72
2022-12-05T05:55:53.092Z,102291.97
2022-12-05T05:58:39.406Z,102291.06
2022-12-05T06:01:25.076Z,102292.47
2022-12-05T06:04:10.859Z,102289.28
2022-12-05T06:06:56.525Z,102296.47
2022-12-05T06:09:42.004Z,102297.53
2022-12-05T06:12:27.380Z,102302.88
2022-12-05T06:15:13.322Z,102304.75
2022-12-05T06:17:58.978Z,102304.94
2022-12-05T06:20:55.855Z,102305.81
2022-12-05T06:23:41.381Z,102319.75
2022-12-05T06:26:26.801Z,102318.34
2022-12-05T06:29:12.082Z,102315.03
2022-12-05T06:31:57.487Z,102321.06
2022-12-05T06:34:42.964Z,102313.38
2022-12-05T06:37:28.396Z,102314.34
2022-12-05T06:40:14.130Z,102314.63
2022-12-05T06:42:59.537Z,102305.22
2022-12-05T06:45:44.893Z,102293.19
2022-12-05T06:48:30.536Z,102286.81
2022-12-05T06:51:17.265Z,102294.72
2022-12-05T06:54:03.261Z,102283.69
2022-12-05T06:56:48.685Z,102297.75
2022-12-05T06:59:34.003Z,102299.91
2022-12-05T07:02:19.335Z,102298.47
2022-12-05T07:05:04.875Z,102294.19
2022-12-05T07:07:50.609Z,102307.00
2022-12-05T07:10:36.194Z,102298.94
2022-12-05T07:13:21.899Z,102301.22
2022-12-05T07:16:07.931Z,102306.06
2022-12-05T07:18:53.224Z,102309.25
2022-12-05T07:21:38.849Z,102310.38
2022-12-05T07:24:24.290Z,102321.19
2022-12-05T07:27:09.654Z,102326.16
2022-12-05T07:29:56.182Z,102332.63
2022-12-05T07:32:41.716Z,102336.13
2022-12-05T07:35:27.099Z,102335.06
2022-12-05T07:38:12.670Z,102335.00
2022-12-05T07:40:58.180Z,102331.75
2022-12-05T07:43:43.569Z,102337.78
2022-12-05T07:46:29.218Z,102350.19
2022-12-05T07:49:15.990Z,102357.69
2022-12-05T07:52:01.672Z,102362.31
2022-12-05T07:54:46.986Z,102363.78
2022-12-05T07:57:32.544Z,102372.97
2022-12-05T08:00:18.645Z,102385.75
2022-12-05T08:03:04.375Z,102387.47
2022-12-05T08:05:50.747Z,102399.69
2022-12-05T08:08:37.016Z,102405.00
2022-12-05T08:11:36.694Z,102410.09
2022-12-05T08:14:22.262Z,102408.97
2022-12-05T08:17:07.620Z,102413.88
2022-12-05T08:19:52.978Z,102415.13
2022-12-05T08:22:38.367Z,102419.00
2022-12-05T08:25:23.796Z,102415.97
2022-12-05T08:28:09.273Z,102413.69
2022-12-05T08:30:54.791Z,102420.78
2022-12-05T08:33:41.915Z,102436.44
2022-12-05T08:36:31.441Z,102415.69
2022-12-05T08:39:18.947Z,102413.91
2022-12-05T08:42:04.394Z,102418.19
2022-12-05T08:44:51.168Z,102415.81
2022-12-05T08:47:36.836Z,102419.53
2022-12-05T08:50:22.671Z,102422.00
2022-12-05T08:53:08.389Z,102434.66
2022-12-05T08:55:53.791Z,102433.72
2022-12-05T08:58:39.737Z,102438.72
2022-12-05T09:01:32.030Z,102438.84
2022-12-05T09:04:17.939Z,102438.66
2022-12-05T09:07:03.857Z,102446.28
2022-12-05T09:09:49.297Z,102448.53
2022-12-05T09:12:39.538Z,102444.81
2022-12-05T09:15:25.008Z,102431.81
2022-12-05T09:18:10.589Z,102428.28
2022-12-05T09:20:56.311Z,102433.91
2022-12-05T09:23:41.888Z,102432.63
2022-12-05T09:26:29.945Z,102437.53
2022-12-05T09:29:17.717Z,102433.22
2022-12-05T09:32:03.939Z,102450.53
2022-12-05T09:34:49.604Z,102440.25
2022-12-05T09:37:39.650Z,102446.44
2022-12-05T09:40:25.488Z,102440.53
2022-12-05T09:43:37.046Z,102447.66
2022-12-05T09:46:54.993Z,102433.31
2022-12-05T09:49:50.079Z,102436.19
2022-12-05T09:52:39.798Z,102422.03
2022-12-05T09:55:28.242Z,102421.88
2022-12-05T09:58:47.363Z,102434.06
2022-12-05T10:02:24.952Z,102436.56
2022-12-05T10:05:21.296Z,102438.31
2022-12-05T10:08:26.793Z,102434.34
2022-12-05T10:11:26.525Z,102434.34
2022-12-05T10:14:42.359Z,102428.19
2022-12-05T10:17:33.896Z,102428.31
2022-12-05T10:20:29.988Z,102434.66
2022-12-05T10:23:49.351Z,102433.16
2022-12-05T10:26:34.615Z,102427.44
2022-12-05T10:29:38.394Z,102418.13
2022-12-05T10:32:43.915Z,102423.38
2022-12-05T10:35:37.712Z,102424.16
2022-12-05T10:38:31.296Z,102427.28
2022-12-05T10:41:17.924Z,102433.91
2022-12-05T10:44:03.930Z,102429.47
2022-12-05T10:46:49.510Z,102441.63
2022-12-05T10:49:38.228Z,102436.75
2022-12-05T10:52:24.465Z,102438.03
2022-12-05T10:55:16.541Z,102431.19
2022-12-05T10:58:18.083Z,102423.25
2022-12-05T11:01:15.924Z,102418.00
2022-12-05T11:04:13.494Z,102416.38
2022-12-05T11:07:05.143Z,102407.75
2022-12-05T11:09:50.601Z,102401.00
2022-12-05T11:12:39.113Z,102401.25
2022-12-05T11:15:30.185Z,102417.00
2022-12-05T11:18:35.175Z,102420.69
2022-12-05T11:21:20.997Z,102411.06
2022-12-05T11:24:29.077Z,102404.84
2022-12-05T11:27:17.521Z,102406.56
2022-12-05T11:30:12.297Z,102402.19
2022-12-05T11:33:19.744Z,102400.44
2022-12-05T11:36:23.791Z,102410.75
2022-12-05T11:39:12.936Z,102419.53
2022-12-05T11:42:21.285Z,102420.69
2022-12-05T11:45:29.348Z,102422.81
2022-12-05T11:48:34.855Z,102412.75
2022-12-05T11:51:52.676Z,102406.00
2022-12-05T11:55:11.571Z,102404.44
2022-12-05T11:58:25.543Z,102408.13
2022-12-05T12:01:35.390Z,102419.03
2022-12-05T12:04:42.451Z,102416.81
2022-12-05T12:07:27.754Z,102422.34
2022-12-05T12:10:22.808Z,102430.59
2022-12-05T12:13:26.730Z,102432.72
2022-12-05T12:16:23.566Z,102431.50
2022-12-05T12:19:33.730Z,102427.06
2022-12-05T12:22:31.314Z,102434.78
2022-12-05T12:25:31.880Z,102450.16
2022-12-05T12:28:32.375Z,102444.72
2022-12-05T12:31:36.805Z,102445.50
2022-12-05T12:34:41.347Z,102450.69
2022-12-05T12:38:00.855Z,102448.97
2022-12-05T12:41:11.482Z,102445.59
2022-12-05T12:44:23.954Z,102444.84
2022-12-05T12:47:19.254Z,102432.88
2022-12-05T12:50:36.595Z,102432.25
2022-12-05T12:53:48.817Z,102447.31
2022-12-05T12:56:58.843Z,102436.69
2022-12-05T13:00:10.921Z,102446.63
2022-12-05T13:03:29.759Z,102439.28
2022-12-05T13:06:28.771Z,102427.00
2022-12-05T13:09:17.420Z,102432.94
2022-12-05T13:12:11.422Z,102431.03
2022-12-05T13:15:04.612Z,102428.31
2022-12-05T13:17:51.868Z,102435.34
2022-12-05T13:20:37.743Z,102438.06
2022-12-05T13:23:27.301Z,102439.28
2022-12-05T13:26:13.636Z,102437.06
2022-12-05T13:29:04.693Z,102438.91
2022-12-05T13:31:50.584Z,102442.13
2022-12-05T13:34:46.202Z,102439.34
2022-12-05T13:37:51.451Z,102432.19
2022-12-05T13:41:09.091Z,102445.16
2022-12-05T13:44:05.945Z,102448.63
2022-12-05T13:46:52.478Z,102449.44
2022-12-05T13:49:52.014Z,102450.41
2022-12-05T13:52:49.395Z,102451.09
2022-12-05T13:56:02.213Z,102446.50
2022-12-05T13:58:53.177Z,102446.31
2022-12-05T14:01:53.885Z,102447.13
2022-12-05T14:04:50.502Z,102452.97
2022-12-05T14:07:40.447Z,102445.28
2022-12-05T14:10:28.946Z,102457.56
2022-12-05T14:13:17.717Z,102451.38
2022-12-05T14:16:23.566Z,102449.66
2022-12-05T14:20:00.339Z,102455.03
2022-12-05T14:22:46.078Z,102447.25
2022-12-05T14:25:31.633Z,102443.72
2022-12-05T14:28:52.487Z,102437.50
2022-12-05T14:32:07.268Z,102434.97
2022-12-05T14:35:00.859Z,102440.16
2022-12-05T14:37:58.930Z,102447.00
2022-12-05T14:40:46.804Z,102435.81
2022-12-05T14:43:34.441Z,102437.44
2022-12-05T14:46:32.223Z,102434.78
2022-12-05T14:49:51.950Z,102446.66
2022-12-05T14:52:41.054Z,102441.03
2022-12-05T14:55:27.252Z,102442.38
2022-12-05T14:58:45.092Z,102448.25
2022-12-05T15:01:42.686Z,102452.47
2022-12-05T15:04:54.166Z,102450.63
2022-12-05T15:07:40.735Z,102463.56
2022-12-05T15:10:32.785Z,102458.31
2022-12-05T15:13:30.768Z,102457.50
2022-12-05T15:16:22.588Z,102448.72
2022-12-05T15:19:17.705Z,102447.81
2022-12-05T15:22:07.833Z,102444.34
2022-12-05T15:24:53.290Z,102439.84
2022-12-05T15:27:38.586Z,102440.44
2022-12-05T15:30:24.102Z,102442.75
2022-12-05T15:33:13.192Z,102431.34
2022-12-05T15:35:59.896Z,102441.72
2022-12-05T15:38:45.305Z,102440.84
2022-12-05T15:41:31.204Z,102446.09
2022-12-05T15:44:16.625Z,102449.53
2022-12-05T15:47:01.964Z,102446.97
2022-12-05T15:49:47.465Z,102444.22
2022-12-05T15:52:45.195Z,102455.31
2022-12-05T15:55:38.264Z,102456.06
2022-12-05T15:58:27.208Z,102450.75
2022-12-05T16:01:16.038Z,102446.88
2022-12-05T16:04:13.641Z,102449.84
2022-12-05T16:07:06.589Z,102445.84
2022-12-05T16:09:59.815Z,102434.00
2022-12-05T16:12:45.606Z,102432.44
2022-12-05T16:15:31.188Z,102429.16
2022-12-05T16:18:27.068Z,102434.53
2022-12-05T16:21:40.937Z,102437.50
2022-12-05T16:24:42.361Z,102437.78
2022-12-05T16:27:36.135Z,102436.91
2022-12-05T16:30:23.238Z,102444.06
2022-12-05T16:33:16.820Z,102442.41
2022-12-05T16:36:13.258Z,102446.50
2022-12-05T16:39:07.129Z,102434.97
2022-12-05T16:41:53.126Z,102436.59
2022-12-05T16:44:47.843Z,102441.03
2022-12-05T16:47:58.660Z,102439.97
2022-12-05T16:50:44.506Z,102449.47
2022-12-05T16:53:32.943Z,102457.47
2022-12-05T16:56:32.554Z,102458.69
2022-12-05T16:59:30.116Z,102466.00
2022-12-05T17:02:18.132Z,102466.38
2022-12-05T17:05:13.169Z,102457.06
2022-12-05T17:07:58.721Z,102453.53
2022-12-05T17:10:44.709Z,102463.97
2022-12-05T17:13:32.682Z,102469.91
2022-12-05T17:16:20.593Z,102468.19
2022-12-05T17:19:08.047Z,102461.38
2022-12-05T17:21:53.730Z,102462.44
2022-12-05T17:24:39.432Z,102454.00
2022-12-05T17:27:24.617Z,102462.38
2022-12-05T17:30:10.843Z,102452.63
2022-12-05T17:32:56.445Z,102454.28
2022-12-05T17:35:41.965Z,102455.78
2022-12-05T17:38:27.582Z,102445.06
2022-12-05T17:41:23.497Z,102456.09
2022-12-05T17:44:13.224Z,102463.06
2022-12-05T17:47:03.006Z,102462.13
2022-12-05T17:49:51.936Z,102468.19
2022-12-05T17:52:37.437Z,102472.56
2022-12-05T17:55:31.093Z,102475.16
2022-12-05T17:58:17.016Z,102470.97
2022-12-05T18:01:02.793Z,102474.53
2022-12-05T18:03:49.040Z,102470.38
2022-12-05T18:06:34.704Z,102470.50
2022-12-05T18:09:20.026Z,102480.25
2022-12-05T18:12:05.997Z,102478.00
2022-12-05T18:14:51.402Z,102483.34
2022-12-05T18:17:36.927Z,102490.75
2022-12-05T18:20:22.749Z,102485.97
2022-12-05T18:23:08.065Z,102487.25
2022-12-05T18:26:00.276Z,102494.03
2022-12-05T18:28:47.132Z,102493.94
2022-12-05T18:31:32.968Z,102492.97
2022-12-05T18:34:18.828Z,102495.56
2022-12-05T18:37:04.290Z,102504.25
2022-12-05T18:39:49.523Z,102504.09
2022-12-05T18:42:35.111Z,102504.19
2022-12-05T18:45:21.581Z,102505.91
2022-12-05T18:48:31.081Z,102506.91
2022-12-05T18:51:17.969Z,102501.25
2022-12-05T18:54:04.685Z,102506.72
2022-12-05T18:56:52.837Z,102504.19
2022-12-05T18:59:38.127Z,102504.06
2022-12-05T19:02:24.728Z,102502.13
2022-12-05T19:05:10.345Z,102503.91
2022-12-05T19:07:55.842Z,102506.44
2022-12-05T19:10:41.527Z,102512.50
2022-12-05T19:13:26.782Z,102503.63
2022-12-05T19:16:19.346Z,102501.78
2022-12-05T19:19:08.028Z,102511.16
2022-12-05T19:21:53.701Z,102515.53
2022-12-05T19:24:39.319Z,102514.75
2022-12-05T19:27:24.642Z,102517.41
2022-12-05T19:30:10.801Z,102521.06
2022-12-05T19:32:56.290Z,102523.91
2022-12-05T19:35:41.734Z,102518.25
2022-12-05T19:38:31.737Z,102521.72
2022-12-05T19:41:20.206Z,102524.19
2022-12-05T19:44:06.416Z,102529.34
2022-12-05T19:46:53.178Z,102523.38
2022-12-05T19:49:39.008Z,102527.44
2022-12-05T19:52:24.415Z,102534.88
2022-12-05T19:55:10.088Z,102535.94
2022-12-05T19:57:55.507Z,102540.38
2022-12-05T20:00:41.447Z,102550.81
2022-12-05T20:03:26.894Z,102562.09
2022-12-05T20:06:12.216Z,102566.44
2022-12-05T20:08:59.368Z,102572.47
2022-12-05T20:11:52.484Z,102577.47
2022-12-05T20:14:40.081Z,102577.31
2022-12-05T20:17:25.538Z,102576.44
2022-12-05T20:20:11.693Z,102568.00
2022-12-05T20:22:57.044Z,102575.19
2022-12-05T20:25:42.337Z,102575.91
2022-12-05T20:28:29.283Z,102582.50
2022-12-05T20:31:21.404Z,102586.53
2022-12-05T20:34:07.385Z,102586.28
2022-12-05T20:36:52.857Z,102591.25
2022-12-05T20:39:38.590Z,102594.56
2022-12-05T20:42:24.302Z,102594.44
2022-12-05T20:45:10.571Z,102589.13
2022-12-05T20:47:55.916Z,102588.97
2022-12-05T20:50:41.617Z,102594.88
2022-12-05T20:53:28.205Z,102613.75
2022-12-05T20:56:19.212Z,102608.41
2022-12-05T20:59:06.448Z,102606.56
2022-12-05T21:01:52.277Z,102611.59
2022-12-05T21:04:40.998Z,102609.75
2022-12-05T21:07:27.762Z,102608.72
2022-12-05T21:10:13.240Z,102609.44
2022-12-05T21:12:58.716Z,102613.59
2022-12-05T21:15:44.192Z,102623.22
2022-12-05T21:18:29.959Z,102613.00
2022-12-05T21:21:21.246Z,102618.25
2022-12-05T21:24:07.210Z,102628.75
2022-12-05T21:26:52.556Z,102631.41
2022-12-05T21:29:37.918Z,102636.69
2022-12-05T21:32:23.342Z,102634.00
2022-12-05T21:35:09.599Z,102632.06
2022-12-05T21:37:55.106Z,102633.63
2022-12-05T21:40:42.935Z,102624.81
2022-12-05T21:43:28.534Z,102623.03
2022-12-05T21:46:14.185Z,102629.91
2022-12-05T21:48:59.938Z,102635.09
2022-12-05T21:51:45.331Z,102647.31
2022-12-05T21:54:30.741Z,102631.84
2022-12-05T21:57:16.311Z,102634.44
2022-12-05T22:00:01.726Z,102630.78
2022-12-05T22:02:50.318Z,102634.22
2022-12-05T22:05:36.001Z,102633.25
2022-12-05T22:08:21.352Z,102622.72
2022-12-05T22:11:15.744Z,102626.13
2022-12-05T22:14:01.367Z,102620.88
2022-12-05T22:16:46.824Z,102613.09
2022-12-05T22:19:32.223Z,102622.59
2022-12-05T22:22:18.009Z,102621.84
2022-12-05T22:25:04.383Z,102620.06
2022-12-05T22:27:49.850Z,102621.78
2022-12-05T22:30:35.234Z,102626.97
2022-12-05T22:33:20.439Z,102625.97
2022-12-05T22:36:08.251Z,102626.81
2022-12-05T22:38:53.775Z,102616.19
2022-12-05T22:41:38.999Z,102619.63
2022-12-05T22:44:24.802Z,102617.84
2022-12-05T22:47:10.210Z,102624.78
2022-12-05T22:49:56.092Z,102616.97
2022-12-05T22:52:41.941Z,102624.53
2022-12-05T22:55:27.417Z,102623.59
2022-12-05T22:58:13.053Z,102631.34
2022-12-05T23:01:08.037Z,102624.66
2022-12-05T23:04:09.883Z,102628.25
2022-12-05T23:06:55.431Z,102626.63
2022-12-05T23:09:40.998Z,102615.31
2022-12-05T23:12:26.559Z,102621.38
2022-12-05T23:15:13.431Z,102625.81
2022-12-05T23:17:59.437Z,102624.03
2022-12-05T23:20:45.087Z,102626.72
2022-12-05T23:23:30.826Z,102615.31
2022-12-05T23:26:18.303Z,102620.41
2022-12-05T23:29:04.666Z,102614.94
2022-12-05T23:31:50.628Z,102618.03
2022-12-05T23:34:36.206Z,102620.28
2022-12-05T23:37:22.010Z,102622.78
2022-12-05T23:40:08.566Z,102624.41
2022-12-05T23:42:54.251Z,102622.00
2022-12-05T23:45:40.025Z,102611.78
2022-12-05T23:48:26.117Z,102610.28
2022-12-05T23:51:18.565Z,102614.69
2022-12-05T23:54:04.261Z,102607.97
2022-12-05T23:56:49.992Z,102604.59
2022-12-05T23:59:35.772Z,102607.34
